createdAt,value
2022-10-06T00:00:54.758Z,76624.66
2022-10-06T00:03:24.411Z,76643.00
2022-10-06T00:05:52.969Z,76651.16
2022-10-06T00:08:20.778Z,76669.53
2022-10-06T00:10:48.575Z,76694.00
2022-10-06T00:13:17.782Z,76698.06
2022-10-06T00:15:45.641Z,76704.19
2022-10-06T00:18:13.486Z,76718.47
2022-10-06T00:20:43.372Z,76720.50
2022-10-06T00:23:11.507Z,76728.66
2022-10-06T00:25:39.358Z,76730.69
2022-10-06T00:28:07.357Z,76734.78
2022-10-06T00:30:37.085Z,76742.94
2022-10-06T00:33:05.089Z,76771.47
2022-10-06T00:35:35.089Z,76779.63
2022-10-06T00:38:03.014Z,76775.56
2022-10-06T00:40:32.243Z,76777.59
2022-10-06T00:43:02.985Z,76779.63
2022-10-06T00:45:34.515Z,76779.63
2022-10-06T00:48:08.554Z,76783.72
2022-10-06T00:50:37.606Z,76791.88
2022-10-06T00:53:07.064Z,76797.97
2022-10-06T00:55:34.959Z,76797.97
2022-10-06T00:58:03.054Z,76806.13
2022-10-06T01:00:31.034Z,76816.34
2022-10-06T01:03:03.400Z,76820.41
2022-10-06T01:05:37.044Z,76816.34
2022-10-06T01:08:04.901Z,76832.66
2022-10-06T01:10:32.756Z,76840.81
2022-10-06T01:13:00.850Z,76842.84
2022-10-06T01:15:29.639Z,76851.00
2022-10-06T01:18:02.212Z,76857.13
2022-10-06T01:20:30.619Z,76867.31
2022-10-06T01:23:05.103Z,76869.34
2022-10-06T01:25:34.388Z,76861.19
2022-10-06T01:28:04.315Z,76865.28
2022-10-06T01:30:37.464Z,76863.25
2022-10-06T01:33:06.016Z,76873.44
2022-10-06T01:35:33.854Z,76873.44
2022-10-06T01:38:03.061Z,76887.72
2022-10-06T01:40:30.947Z,76885.66
2022-10-06T01:42:58.731Z,76889.75
2022-10-06T01:45:26.535Z,76906.06
2022-10-06T01:47:54.382Z,76901.97
2022-10-06T01:50:22.163Z,76906.06
2022-10-06T01:52:50.051Z,76914.22
2022-10-06T01:55:19.392Z,76924.41
2022-10-06T01:57:47.203Z,76924.41
2022-10-06T02:00:15.369Z,76926.47
2022-10-06T02:02:44.870Z,76926.47
2022-10-06T02:05:14.596Z,76944.81
2022-10-06T02:07:42.431Z,76942.78
2022-10-06T02:10:10.825Z,76944.81
2022-10-06T02:12:39.966Z,76942.78
2022-10-06T02:15:10.986Z,76938.69
2022-10-06T02:17:40.157Z,76942.78
2022-10-06T02:20:08.721Z,76944.81
2022-10-06T02:22:38.967Z,76940.72
2022-10-06T02:25:07.338Z,76946.84
2022-10-06T02:27:35.140Z,76950.94
2022-10-06T02:30:05.623Z,76950.94
2022-10-06T02:32:34.912Z,76963.16
2022-10-06T02:35:03.758Z,76965.19
2022-10-06T02:37:31.699Z,76973.38
2022-10-06T02:39:59.863Z,76975.41
2022-10-06T02:42:27.823Z,76975.41
2022-10-06T02:44:55.600Z,76977.44
2022-10-06T02:47:24.779Z,76959.09
2022-10-06T02:49:53.097Z,76934.63
2022-10-06T02:52:20.883Z,76914.22
2022-10-06T02:54:48.739Z,76893.81
2022-10-06T02:57:16.540Z,76869.34
2022-10-06T02:59:44.677Z,76853.03
2022-10-06T03:02:12.658Z,76836.72
2022-10-06T03:04:41.895Z,76836.72
2022-10-06T03:07:09.700Z,76824.50
2022-10-06T03:09:37.543Z,76822.47
2022-10-06T03:12:05.479Z,76804.09
2022-10-06T03:14:33.282Z,76800.03
2022-10-06T03:17:02.878Z,76791.88
2022-10-06T03:19:30.730Z,76783.72
2022-10-06T03:21:59.864Z,76775.56
2022-10-06T03:24:27.697Z,76771.47
2022-10-06T03:26:55.586Z,76771.47
2022-10-06T03:29:23.374Z,76771.47
2022-10-06T03:31:51.242Z,76783.72
2022-10-06T03:34:19.026Z,76775.56
2022-10-06T03:36:46.865Z,76775.56
2022-10-06T03:39:16.078Z,76771.47
2022-10-06T03:41:43.891Z,76773.50
2022-10-06T03:44:11.708Z,76769.44
2022-10-06T03:46:39.652Z,76777.59
2022-10-06T03:49:07.794Z,76789.81
2022-10-06T03:51:37.087Z,76791.88
2022-10-06T03:54:05.715Z,76804.09
2022-10-06T03:56:36.843Z,76808.19
2022-10-06T03:59:06.561Z,76804.09
2022-10-06T04:01:36.614Z,76810.22
2022-10-06T04:04:05.519Z,76808.19
2022-10-06T04:06:34.987Z,76812.25
2022-10-06T04:09:02.868Z,76816.34
2022-10-06T04:11:32.519Z,76814.31
2022-10-06T04:14:03.566Z,76826.53
2022-10-06T04:16:33.074Z,76830.63
2022-10-06T04:19:03.933Z,76840.81
2022-10-06T04:21:33.636Z,76836.72
2022-10-06T04:24:01.705Z,76844.88
2022-10-06T04:26:32.123Z,76838.78
2022-10-06T04:29:01.648Z,76857.13
2022-10-06T04:31:31.196Z,76857.13
2022-10-06T04:34:00.885Z,76855.09
2022-10-06T04:36:31.349Z,76859.16
2022-10-06T04:39:01.407Z,76863.25
2022-10-06T04:41:31.509Z,76865.28
2022-10-06T04:44:01.503Z,76875.47
2022-10-06T04:46:42.636Z,76879.56
2022-10-06T04:49:14.948Z,76887.72
2022-10-06T04:51:47.093Z,76897.91
2022-10-06T04:54:15.314Z,76899.94
2022-10-06T04:56:43.161Z,76901.97
2022-10-06T04:59:12.308Z,76897.91
2022-10-06T05:01:40.146Z,76901.97
2022-10-06T05:04:08.085Z,76895.88
2022-10-06T05:06:37.509Z,76897.91
2022-10-06T05:09:07.594Z,76901.97
2022-10-06T05:11:35.607Z,76901.97
2022-10-06T05:14:03.560Z,76897.91
2022-10-06T05:16:33.013Z,76895.88
2022-10-06T05:19:01.066Z,76895.88
2022-10-06T05:21:31.152Z,76885.66
2022-10-06T05:23:59.418Z,76885.66
2022-10-06T05:26:29.643Z,76877.50
2022-10-06T05:28:57.712Z,76875.47
2022-10-06T05:31:27.934Z,76877.50
2022-10-06T05:33:57.419Z,76871.41
2022-10-06T05:36:28.262Z,76873.44
2022-10-06T05:38:57.099Z,76865.28
2022-10-06T05:41:26.565Z,76869.34
2022-10-06T05:43:54.428Z,76861.19
2022-10-06T05:46:25.201Z,76857.13
2022-10-06T05:48:55.881Z,76853.03
2022-10-06T05:51:30.635Z,76853.03
2022-10-06T05:53:59.850Z,76842.84
2022-10-06T05:56:29.202Z,76832.66
2022-10-06T05:58:58.358Z,76822.47
2022-10-06T06:01:27.901Z,76814.31
2022-10-06T06:03:59.459Z,76808.19
2022-10-06T06:06:30.252Z,76797.97
2022-10-06T06:08:59.859Z,76791.88
2022-10-06T06:11:28.890Z,76779.63
2022-10-06T06:13:57.312Z,76775.56
2022-10-06T06:16:25.654Z,76771.47
2022-10-06T06:18:53.914Z,76771.47
2022-10-06T06:21:22.283Z,76755.16
2022-10-06T06:23:51.422Z,76747.00
2022-10-06T06:26:23.523Z,76732.72
2022-10-06T06:28:51.901Z,76732.72
2022-10-06T06:31:22.111Z,76724.56
2022-10-06T06:33:53.176Z,76710.31
2022-10-06T06:36:24.936Z,76698.06
2022-10-06T06:38:55.282Z,76698.06
2022-10-06T06:41:25.372Z,76687.88
2022-10-06T06:43:53.914Z,76681.75
2022-10-06T06:46:25.058Z,76683.78
2022-10-06T06:48:53.773Z,76687.88
2022-10-06T06:51:22.980Z,76677.69
2022-10-06T06:53:51.531Z,76671.56
2022-10-06T06:56:22.289Z,76673.59
2022-10-06T06:58:50.197Z,76673.59
2022-10-06T07:01:19.713Z,76675.63
2022-10-06T07:03:58.805Z,76665.44
2022-10-06T07:06:29.200Z,76661.38
2022-10-06T07:08:58.818Z,76649.13
2022-10-06T07:11:30.049Z,76645.03
2022-10-06T07:14:01.304Z,76624.66
2022-10-06T07:16:47.739Z,76616.50
2022-10-06T07:19:34.055Z,76606.31
2022-10-06T07:22:21.694Z,76587.94
2022-10-06T07:25:06.955Z,76569.59
2022-10-06T07:27:38.414Z,76559.41
2022-10-06T07:30:07.187Z,76561.44
2022-10-06T07:32:34.970Z,76547.16
2022-10-06T07:35:04.233Z,76520.66
2022-10-06T07:37:32.072Z,76506.38
2022-10-06T07:39:59.863Z,76504.34
2022-10-06T07:42:27.668Z,76486.00
2022-10-06T07:45:14.556Z,76473.75
2022-10-06T07:47:42.342Z,76469.69
2022-10-06T07:50:11.565Z,76457.44
2022-10-06T07:52:39.632Z,76451.34
2022-10-06T07:55:08.371Z,76441.16
2022-10-06T07:57:36.236Z,76435.03
2022-10-06T08:00:07.243Z,76428.91
2022-10-06T08:02:36.111Z,76422.78
2022-10-06T08:05:04.983Z,76400.38
2022-10-06T08:07:32.791Z,76386.09
2022-10-06T08:10:00.590Z,76384.06
2022-10-06T08:12:34.328Z,76388.13
2022-10-06T08:15:06.170Z,76414.63
2022-10-06T08:17:37.293Z,76426.88
2022-10-06T08:20:07.435Z,76437.06
2022-10-06T08:22:36.263Z,76428.91
2022-10-06T08:25:06.783Z,76424.84
2022-10-06T08:27:36.539Z,76402.41
2022-10-06T08:30:05.184Z,76388.13
2022-10-06T08:32:34.787Z,76371.81
2022-10-06T08:35:05.129Z,76341.22
2022-10-06T08:37:32.931Z,76322.88
2022-10-06T08:40:00.713Z,76310.66
2022-10-06T08:42:38.206Z,76290.25
2022-10-06T08:45:11.955Z,76290.25
2022-10-06T08:47:43.751Z,76282.09
2022-10-06T08:50:13.744Z,76271.91
2022-10-06T08:52:49.401Z,76263.75
2022-10-06T08:55:29.927Z,76249.47
2022-10-06T08:58:29.189Z,76218.91
2022-10-06T09:00:57.475Z,76192.41
2022-10-06T09:03:30.569Z,76180.16
2022-10-06T09:06:13.267Z,76159.78
2022-10-06T09:08:50.861Z,76151.63
2022-10-06T09:11:36.998Z,76127.16
2022-10-06T09:14:09.771Z,76127.16
2022-10-06T09:16:42.814Z,76127.16
2022-10-06T09:19:16.695Z,76086.38
2022-10-06T09:21:48.916Z,76082.28
2022-10-06T09:24:18.657Z,76076.19
2022-10-06T09:26:50.630Z,76039.47
2022-10-06T09:29:18.898Z,76021.13
2022-10-06T09:31:50.706Z,76023.19
2022-10-06T09:34:24.945Z,76025.22
2022-10-06T09:37:03.280Z,76023.19
2022-10-06T09:39:36.650Z,76012.97
2022-10-06T09:42:12.542Z,76000.75
2022-10-06T09:44:48.131Z,75986.47
2022-10-06T09:47:35.632Z,75966.09
2022-10-06T09:50:11.894Z,75964.06
2022-10-06T09:52:42.066Z,75943.66
2022-10-06T09:55:13.431Z,75923.28
2022-10-06T09:57:49.837Z,75902.88
2022-10-06T10:00:28.088Z,75898.81
2022-10-06T10:03:00.934Z,75890.66
2022-10-06T10:05:31.393Z,75866.19
2022-10-06T10:08:10.025Z,75841.72
2022-10-06T10:10:38.326Z,75847.84
2022-10-06T10:13:20.017Z,75841.72
2022-10-06T10:15:58.301Z,75853.97
2022-10-06T10:18:30.205Z,75841.72
2022-10-06T10:21:00.492Z,75821.34
2022-10-06T10:23:33.397Z,75805.03
2022-10-06T10:26:18.515Z,75811.16
2022-10-06T10:29:10.571Z,75829.50
2022-10-06T10:31:50.828Z,75833.56
2022-10-06T10:34:39.230Z,75825.41
2022-10-06T10:37:13.227Z,75805.03
2022-10-06T10:39:46.915Z,75811.16
2022-10-06T10:42:19.826Z,75805.03
2022-10-06T10:44:55.776Z,75764.25
2022-10-06T10:47:28.022Z,75739.81
2022-10-06T10:50:03.605Z,75727.56
2022-10-06T10:52:35.570Z,75731.66
2022-10-06T10:55:19.693Z,75723.50
2022-10-06T10:57:50.134Z,75729.59
2022-10-06T11:00:21.951Z,75694.94
2022-10-06T11:02:53.031Z,75672.53
2022-10-06T11:05:33.753Z,75666.41
2022-10-06T11:08:12.442Z,75672.53
2022-10-06T11:10:49.603Z,75670.50
2022-10-06T11:13:24.822Z,75674.56
2022-10-06T11:16:16.261Z,75662.34
2022-10-06T11:18:57.398Z,75654.19
2022-10-06T11:21:28.980Z,75668.44
2022-10-06T11:24:03.975Z,75666.41
2022-10-06T11:26:51.281Z,75633.78
2022-10-06T11:29:33.944Z,75617.50
2022-10-06T11:32:16.157Z,75599.13
2022-10-06T11:34:44.880Z,75593.03
2022-10-06T11:37:24.942Z,75599.13
2022-10-06T11:40:01.058Z,75572.63
2022-10-06T11:42:40.506Z,75548.19
2022-10-06T11:45:13.984Z,75523.72
2022-10-06T11:48:00.933Z,75507.41
2022-10-06T11:50:37.702Z,75499.25
2022-10-06T11:53:06.676Z,75499.25
2022-10-06T11:55:34.805Z,75495.19
2022-10-06T12:01:02.181Z,75487.03
2022-10-06T12:03:47.561Z,75495.19
2022-10-06T12:06:57.632Z,75466.63
2022-10-06T12:09:46.187Z,75487.03
2022-10-06T12:13:05.413Z,75442.19
2022-10-06T12:18:45.451Z,75423.84
2022-10-06T12:21:32.552Z,75440.13
2022-10-06T12:24:06.275Z,75470.72
2022-10-06T12:26:54.030Z,75448.28
2022-10-06T12:29:32.099Z,75421.78
2022-10-06T12:32:14.831Z,75429.94
2022-10-06T12:34:56.734Z,75454.41
2022-10-06T12:37:44.149Z,75466.63
2022-10-06T12:40:47.718Z,75470.72
2022-10-06T12:43:33.710Z,75440.13
2022-10-06T12:46:07.398Z,75440.13
2022-10-06T12:48:43.060Z,75452.38
2022-10-06T12:51:23.273Z,75442.19
2022-10-06T12:54:00.122Z,75450.34
2022-10-06T12:56:31.793Z,75442.19
2022-10-06T12:58:59.814Z,75446.25
2022-10-06T13:01:28.482Z,75460.53
2022-10-06T13:03:57.707Z,75466.63
2022-10-06T13:06:26.208Z,75476.84
2022-10-06T13:09:06.768Z,75448.28
2022-10-06T13:11:34.710Z,75460.53
2022-10-06T13:14:10.699Z,75442.19
2022-10-06T13:16:41.682Z,75434.03
2022-10-06T13:19:19.680Z,75419.75
2022-10-06T13:21:48.081Z,75427.91
2022-10-06T13:24:20.524Z,75427.91
2022-10-06T13:26:49.214Z,75434.03
2022-10-06T13:29:20.544Z,75446.25
2022-10-06T13:31:52.815Z,75434.03
2022-10-06T13:34:28.720Z,75415.69
2022-10-06T13:36:57.446Z,75403.44
2022-10-06T13:39:27.017Z,75421.78
2022-10-06T13:41:58.536Z,75452.38
2022-10-06T13:44:34.741Z,75468.69
2022-10-06T13:47:05.538Z,75456.44
2022-10-06T13:49:43.088Z,75458.50
2022-10-06T13:52:17.325Z,75462.56
2022-10-06T13:54:51.543Z,75466.63
2022-10-06T13:57:37.155Z,75478.88
2022-10-06T14:00:18.456Z,75480.91
2022-10-06T14:02:48.195Z,75487.03
2022-10-06T14:05:30.377Z,75491.09
2022-10-06T14:08:01.193Z,75499.25
2022-10-06T14:10:33.498Z,75495.19
2022-10-06T14:13:02.349Z,75482.94
2022-10-06T14:15:35.351Z,75464.59
2022-10-06T14:18:06.148Z,75462.56
2022-10-06T14:20:37.726Z,75474.78
2022-10-06T14:23:50.396Z,75480.91
2022-10-06T14:26:21.031Z,75499.25
2022-10-06T14:28:51.544Z,75503.34
2022-10-06T14:31:20.137Z,75507.41
2022-10-06T14:33:49.243Z,75521.69
2022-10-06T14:36:20.817Z,75519.63
2022-10-06T14:38:49.918Z,75519.63
2022-10-06T14:41:19.742Z,75515.56
2022-10-06T14:43:48.407Z,75521.69
2022-10-06T14:46:16.364Z,75519.63
2022-10-06T14:48:44.198Z,75533.91
2022-10-06T14:51:12.079Z,75540.03
2022-10-06T14:53:41.403Z,75552.25
2022-10-06T14:56:11.372Z,75560.41
2022-10-06T14:58:40.311Z,75564.47
2022-10-06T15:01:09.517Z,75564.47
2022-10-06T15:03:37.735Z,75568.56
2022-10-06T15:06:24.995Z,75568.56
2022-10-06T15:08:55.874Z,75568.56
2022-10-06T15:11:25.145Z,75556.34
2022-10-06T15:13:54.878Z,75562.44
2022-10-06T15:16:23.267Z,75560.41
2022-10-06T15:18:51.828Z,75556.34
2022-10-06T15:21:21.108Z,75560.41
2022-10-06T15:23:49.096Z,75566.53
2022-10-06T15:26:35.709Z,75570.59
2022-10-06T15:29:03.844Z,75572.63
2022-10-06T15:31:34.097Z,75580.78
2022-10-06T15:34:03.525Z,75588.94
2022-10-06T15:36:34.215Z,75601.19
2022-10-06T15:39:06.752Z,75605.25
2022-10-06T15:41:36.947Z,75617.50
2022-10-06T15:44:06.375Z,75621.56
2022-10-06T15:46:37.179Z,75625.63
2022-10-06T15:49:07.043Z,75641.94
2022-10-06T15:51:37.215Z,75646.03
2022-10-06T15:54:05.901Z,75654.19
2022-10-06T15:56:34.014Z,75662.34
2022-10-06T15:59:03.209Z,75674.56
2022-10-06T16:01:42.023Z,75690.88
2022-10-06T16:04:23.325Z,75694.94
2022-10-06T16:06:55.200Z,75719.41
2022-10-06T16:09:24.708Z,75723.50
2022-10-06T16:11:53.142Z,75735.72
2022-10-06T16:14:22.865Z,75739.81
2022-10-06T16:16:51.714Z,75768.34
2022-10-06T16:19:20.646Z,75788.72
2022-10-06T16:21:49.922Z,75813.19
2022-10-06T16:24:18.319Z,75825.41
2022-10-06T16:26:47.095Z,75845.81
2022-10-06T16:29:15.485Z,75868.22
2022-10-06T16:31:45.168Z,75878.44
2022-10-06T16:34:13.622Z,75896.78
2022-10-06T16:36:41.887Z,75911.03
2022-10-06T16:39:14.485Z,75919.19
2022-10-06T16:41:42.384Z,75935.50
2022-10-06T16:44:10.467Z,75955.91
2022-10-06T16:46:38.736Z,75974.25
2022-10-06T16:49:09.282Z,75998.72
2022-10-06T16:51:39.098Z,76012.97
2022-10-06T16:54:08.889Z,76037.44
2022-10-06T16:56:38.743Z,76051.72
2022-10-06T16:59:11.923Z,76053.75
2022-10-06T17:01:40.121Z,76066.00
2022-10-06T17:04:11.409Z,76070.06
2022-10-06T17:06:43.291Z,76086.38
2022-10-06T17:09:14.129Z,76098.59
2022-10-06T17:11:43.253Z,76100.66
2022-10-06T17:14:12.530Z,76112.88
2022-10-06T17:16:42.135Z,76112.88
2022-10-06T17:19:12.839Z,76110.84
2022-10-06T17:21:46.762Z,76108.81
2022-10-06T17:24:17.740Z,76114.91
2022-10-06T17:26:48.002Z,76121.03
2022-10-06T17:29:18.845Z,76123.06
2022-10-06T17:31:48.822Z,76131.22
2022-10-06T17:34:21.980Z,76137.34
2022-10-06T17:36:52.538Z,76149.56
2022-10-06T17:39:22.403Z,76163.84
2022-10-06T17:41:51.874Z,76167.94
2022-10-06T17:44:22.945Z,76172.00
2022-10-06T17:46:52.973Z,76180.16
2022-10-06T17:49:24.083Z,76194.44
2022-10-06T17:51:53.783Z,76192.41
2022-10-06T17:54:24.089Z,76196.47
2022-10-06T17:56:53.492Z,76208.69
2022-10-06T17:59:22.755Z,76225.00
2022-10-06T18:01:51.265Z,76239.28
2022-10-06T18:04:20.532Z,76251.53
2022-10-06T18:06:52.903Z,76261.72
2022-10-06T18:09:21.517Z,76265.78
2022-10-06T18:11:48.656Z,76267.84
2022-10-06T18:14:18.538Z,76273.94
2022-10-06T18:16:52.150Z,76290.25
2022-10-06T18:19:26.348Z,76294.34
2022-10-06T18:21:57.666Z,76298.41
2022-10-06T18:24:28.170Z,76302.50
2022-10-06T18:26:57.642Z,76306.56
2022-10-06T18:29:28.085Z,76316.75
2022-10-06T18:32:09.122Z,76339.19
2022-10-06T18:37:34.106Z,76349.38
2022-10-06T18:40:05.532Z,76355.50
2022-10-06T18:42:33.608Z,76367.75
2022-10-06T18:45:18.985Z,76382.00
2022-10-06T18:48:04.334Z,76388.13
2022-10-06T18:50:32.285Z,76404.44
2022-10-06T18:53:01.731Z,76398.31
2022-10-06T18:55:29.856Z,76404.44
2022-10-06T18:57:57.667Z,76414.63
2022-10-06T19:00:25.987Z,76412.59
2022-10-06T19:02:55.593Z,76416.69
2022-10-06T19:05:23.649Z,76420.75
2022-10-06T19:07:53.338Z,76424.84
2022-10-06T19:10:22.822Z,76432.97
2022-10-06T19:12:50.645Z,76445.22
2022-10-06T19:15:21.148Z,76457.44
2022-10-06T19:17:49.488Z,76457.44
2022-10-06T19:20:18.377Z,76459.50
2022-10-06T19:22:47.479Z,76457.44
2022-10-06T19:25:18.606Z,76463.56
2022-10-06T19:27:48.639Z,76463.56
2022-10-06T19:30:16.545Z,76459.50
2022-10-06T19:32:44.399Z,76473.75
2022-10-06T19:35:12.622Z,76486.00
2022-10-06T19:37:41.010Z,76486.00
2022-10-06T19:40:11.314Z,76502.31
2022-10-06T19:42:47.306Z,76504.34
2022-10-06T19:45:18.162Z,76498.22
2022-10-06T19:47:47.082Z,76502.31
2022-10-06T19:50:16.959Z,76504.34
2022-10-06T19:52:45.208Z,76510.47
2022-10-06T19:55:13.048Z,76512.50
2022-10-06T19:57:41.020Z,76518.63
2022-10-06T20:00:10.666Z,76526.78
2022-10-06T20:02:42.375Z,76536.97
2022-10-06T20:05:11.362Z,76551.25
2022-10-06T20:07:39.201Z,76563.47
2022-10-06T20:10:07.539Z,76579.78
2022-10-06T20:12:35.829Z,76587.94
2022-10-06T20:15:03.775Z,76587.94
2022-10-06T20:17:31.606Z,76577.75
2022-10-06T20:20:03.105Z,76579.78
2022-10-06T20:22:31.563Z,76583.88
2022-10-06T20:25:01.794Z,76596.09
2022-10-06T20:27:29.685Z,76608.34
2022-10-06T20:29:58.044Z,76608.34
2022-10-06T20:32:25.913Z,76612.41
2022-10-06T20:34:53.831Z,76620.56
2022-10-06T20:37:23.090Z,76645.03
2022-10-06T20:40:08.410Z,76643.00
2022-10-06T20:42:36.236Z,76636.91
2022-10-06T20:45:04.399Z,76649.13
2022-10-06T20:47:32.574Z,76653.19
2022-10-06T20:50:00.442Z,76661.38
2022-10-06T20:52:30.219Z,76653.19
2022-10-06T20:54:58.005Z,76657.28
2022-10-06T20:57:28.143Z,76671.56
2022-10-06T20:59:59.710Z,76669.53
2022-10-06T21:02:27.618Z,76677.69
2022-10-06T21:04:57.386Z,76689.91
2022-10-06T21:07:25.593Z,76698.06
2022-10-06T21:09:54.757Z,76710.31
2022-10-06T21:12:22.574Z,76704.19
2022-10-06T21:14:50.403Z,76702.16
2022-10-06T21:17:18.875Z,76700.09
2022-10-06T21:19:46.665Z,76698.06
2022-10-06T21:22:14.466Z,76700.09
2022-10-06T21:24:42.385Z,76698.06
2022-10-06T21:27:11.536Z,76689.91
2022-10-06T21:29:39.343Z,76691.94
2022-10-06T21:32:09.257Z,76687.88
2022-10-06T21:34:37.373Z,76689.91
2022-10-06T21:37:05.209Z,76685.81
2022-10-06T21:39:33.034Z,76698.06
2022-10-06T21:42:00.819Z,76691.94
2022-10-06T21:44:29.948Z,76698.06
2022-10-06T21:47:02.424Z,76712.34
2022-10-06T21:49:30.334Z,76710.31
2022-10-06T21:52:03.466Z,76720.50
2022-10-06T21:54:31.368Z,76747.00
2022-10-06T21:56:59.602Z,76744.97
2022-10-06T21:59:27.418Z,76747.00
2022-10-06T22:01:56.824Z,76734.78
2022-10-06T22:04:24.828Z,76730.69
2022-10-06T22:06:52.612Z,76714.38
2022-10-06T22:09:21.345Z,76714.38
2022-10-06T22:11:49.750Z,76714.38
2022-10-06T22:14:19.259Z,76714.38
2022-10-06T22:16:47.344Z,76722.53
2022-10-06T22:19:17.829Z,76716.41
2022-10-06T22:21:47.915Z,76710.31
2022-10-06T22:24:17.431Z,76708.25
2022-10-06T22:26:45.481Z,76710.31
2022-10-06T22:29:15.598Z,76706.22
2022-10-06T22:31:45.707Z,76716.41
2022-10-06T22:34:17.587Z,76718.47
2022-10-06T22:36:45.595Z,76730.69
2022-10-06T22:39:13.393Z,76738.84
2022-10-06T22:41:41.277Z,76755.16
2022-10-06T22:44:09.759Z,76753.13
2022-10-06T22:46:38.331Z,76742.94
2022-10-06T22:49:06.968Z,76751.09
2022-10-06T22:51:36.500Z,76747.00
2022-10-06T22:54:04.634Z,76749.03
2022-10-06T22:56:33.810Z,76747.00
2022-10-06T22:59:02.043Z,76763.31
2022-10-06T23:01:31.058Z,76771.47
2022-10-06T23:03:59.610Z,76763.31
2022-10-06T23:06:29.673Z,76751.09
2022-10-06T23:08:59.340Z,76755.16
2022-10-06T23:11:27.362Z,76755.16
2022-10-06T23:13:55.327Z,76755.16
2022-10-06T23:16:23.307Z,76755.16
2022-10-06T23:18:51.468Z,76749.03
2022-10-06T23:21:22.554Z,76765.34
2022-10-06T23:23:52.435Z,76775.56
2022-10-06T23:26:22.789Z,76779.63
2022-10-06T23:28:55.655Z,76783.72
2022-10-06T23:31:23.836Z,76785.75
2022-10-06T23:33:51.802Z,76783.72
2022-10-06T23:36:19.886Z,76775.56
2022-10-06T23:38:48.393Z,76769.44
2022-10-06T23:41:16.805Z,76773.50
2022-10-06T23:43:45.999Z,76767.41
2022-10-06T23:46:14.417Z,76767.41
2022-10-06T23:48:42.595Z,76773.50
2022-10-06T23:51:12.366Z,76783.72
2022-10-06T23:53:40.590Z,76787.78
2022-10-06T23:56:08.875Z,76791.88
2022-10-06T23:58:37.864Z,76787.78
